SWR9ZV EDDM-LSZH
Flight info
| Callsign | SWR9ZV |
|---|---|
| Flight time | 0h 31m |
| Altitude | 22000 |
| Route | MERSI5S/26L MERSI Y100 MOMUK Y112 RAVED L856 NEGRA |
| Aircraft | B77W/H-SDE1E2E3FGHIJ2J3J4J5M1RWXY/LB1D1 |
Departure
| Time | 2026-05-07 15:23 |
|---|---|
| Airport | Munich Airport (EDDM) |
Arrival
| Time | 2026-05-07 15:54 |
|---|---|
| Airport | Zürich Airport (LSZH) |
| Time | Latitude | Longitude | Altitude | Speed | Heading |
|---|---|---|---|---|---|
| 2026-05-07 14:48 | 48.35051 | 11.80482 | 1481 ft | 0 kts | 173° |
| 2026-05-07 15:12 | 48.35052 | 11.80482 | 1490 ft | 2 kts | 173° |
| 2026-05-07 15:13 | 48.35077 | 11.80478 | 1483 ft | 4 kts | 173° |
| 2026-05-07 15:13 | 48.35103 | 11.80473 | 1475 ft | 4 kts | 173° |
| 2026-05-07 15:13 | 48.35130 | 11.80473 | 1475 ft | 4 kts | 193° |
| 2026-05-07 15:13 | 48.35153 | 11.80489 | 1475 ft | 4 kts | 227° |
| 2026-05-07 15:14 | 48.35164 | 11.80519 | 1475 ft | 2 kts | 263° |
| 2026-05-07 15:14 | 48.35167 | 11.80554 | 1475 ft | 4 kts | 263° |
| 2026-05-07 15:14 | 48.35168 | 11.80572 | 1475 ft | 0 kts | 263° |
| 2026-05-07 15:16 | 48.35167 | 11.80559 | 1475 ft | 5 kts | 263° |
| 2026-05-07 15:17 | 48.35159 | 11.80447 | 1478 ft | 13 kts | 263° |
| 2026-05-07 15:17 | 48.35148 | 11.80314 | 1490 ft | 13 kts | 263° |
| 2026-05-07 15:17 | 48.35138 | 11.80181 | 1481 ft | 13 kts | 263° |
| 2026-05-07 15:17 | 48.35128 | 11.80048 | 1479 ft | 13 kts | 263° |
| 2026-05-07 15:18 | 48.35118 | 11.79915 | 1483 ft | 13 kts | 263° |
| 2026-05-07 15:18 | 48.35108 | 11.79784 | 1490 ft | 13 kts | 263° |
| 2026-05-07 15:18 | 48.35074 | 11.79667 | 1475 ft | 13 kts | 210° |
| 2026-05-07 15:18 | 48.34986 | 11.79673 | 1478 ft | 13 kts | 175° |
| 2026-05-07 15:19 | 48.34897 | 11.79686 | 1483 ft | 13 kts | 174° |
| 2026-05-07 15:19 | 48.34816 | 11.79717 | 1481 ft | 9 kts | 131° |
| 2026-05-07 15:19 | 48.34810 | 11.79814 | 1482 ft | 9 kts | 83° |
| 2026-05-07 15:19 | 48.34818 | 11.79912 | 1490 ft | 9 kts | 83° |
| 2026-05-07 15:20 | 48.34828 | 11.80037 | 1484 ft | 18 kts | 83° |
| 2026-05-07 15:20 | 48.34841 | 11.80260 | 1480 ft | 22 kts | 92° |
| 2026-05-07 15:20 | 48.34734 | 11.80396 | 1477 ft | 22 kts | 170° |
| 2026-05-07 15:20 | 48.34689 | 11.80405 | 1477 ft | 0 kts | 172° |
| 2026-05-07 15:21 | 48.34687 | 11.80405 | 1478 ft | 1 kts | 172° |
| 2026-05-07 15:21 | 48.34640 | 11.80415 | 1478 ft | 18 kts | 172° |
| 2026-05-07 15:21 | 48.34508 | 11.80382 | 1478 ft | 20 kts | 219° |
| 2026-05-07 15:22 | 48.34461 | 11.80189 | 1485 ft | 21 kts | 265° |
| 2026-05-07 15:22 | 48.34424 | 11.79723 | 1485 ft | 83 kts | 263° |
| 2026-05-07 15:22 | 48.34327 | 11.78457 | 1488 ft | 158 kts | 263° |
| 2026-05-07 15:22 | 48.34170 | 11.76568 | 1709 ft | 195 kts | 265° |
| 2026-05-07 15:23 | 48.34034 | 11.74597 | 2796 ft | 180 kts | 265° |
| 2026-05-07 15:23 | 48.33905 | 11.72756 | 3835 ft | 176 kts | 266° |
| 2026-05-07 15:23 | 48.33764 | 11.70801 | 4213 ft | 204 kts | 265° |
| 2026-05-07 15:23 | 48.33591 | 11.68521 | 4538 ft | 233 kts | 265° |
| 2026-05-07 15:24 | 48.33463 | 11.66876 | 4946 ft | 244 kts | 265° |
| 2026-05-07 15:24 | 48.33200 | 11.63437 | 6083 ft | 256 kts | 264° |
| 2026-05-07 15:24 | 48.33007 | 11.60784 | 6627 ft | 256 kts | 264° |
| 2026-05-07 15:24 | 48.32811 | 11.58091 | 7034 ft | 262 kts | 264° |
| 2026-05-07 15:25 | 48.32612 | 11.55362 | 7164 ft | 264 kts | 264° |
| 2026-05-07 15:25 | 48.32411 | 11.52607 | 8043 ft | 265 kts | 264° |
| 2026-05-07 15:25 | 48.32274 | 11.50752 | 8768 ft | 265 kts | 264° |
| 2026-05-07 15:25 | 48.32071 | 11.47997 | 9809 ft | 266 kts | 263° |
| 2026-05-07 15:26 | 48.31864 | 11.45215 | 10700 ft | 270 kts | 263° |
| 2026-05-07 15:26 | 48.31654 | 11.42384 | 11651 ft | 274 kts | 263° |
| 2026-05-07 15:26 | 48.31441 | 11.39520 | 12733 ft | 277 kts | 263° |
| 2026-05-07 15:26 | 48.31223 | 11.36622 | 13851 ft | 281 kts | 263° |
| 2026-05-07 15:27 | 48.31002 | 11.33686 | 14830 ft | 286 kts | 263° |
| 2026-05-07 15:27 | 48.30501 | 11.30798 | 15663 ft | 294 kts | 243° |
| 2026-05-07 15:27 | 48.29197 | 11.28338 | 16468 ft | 313 kts | 224° |
| 2026-05-07 15:27 | 48.27250 | 11.26567 | 16732 ft | 345 kts | 206° |
| 2026-05-07 15:28 | 48.24945 | 11.25129 | 16958 ft | 375 kts | 205° |
| 2026-05-07 15:28 | 48.22463 | 11.23623 | 17568 ft | 391 kts | 205° |
| 2026-05-07 15:28 | 48.19913 | 11.22057 | 18401 ft | 401 kts | 205° |
| 2026-05-07 15:28 | 48.17319 | 11.20423 | 19265 ft | 406 kts | 206° |
| 2026-05-07 15:29 | 48.14713 | 11.18763 | 20219 ft | 409 kts | 206° |
| 2026-05-07 15:29 | 48.12104 | 11.17005 | 21141 ft | 412 kts | 210° |
| 2026-05-07 15:29 | 48.09624 | 11.14852 | 21912 ft | 411 kts | 214° |
| 2026-05-07 15:29 | 48.07251 | 11.12572 | 22021 ft | 417 kts | 215° |
| 2026-05-07 15:30 | 48.04747 | 11.10191 | 22037 ft | 438 kts | 214° |
| 2026-05-07 15:30 | 48.02095 | 11.07765 | 22035 ft | 454 kts | 213° |
| 2026-05-07 15:30 | 47.99565 | 11.04971 | 22014 ft | 452 kts | 227° |
| 2026-05-07 15:30 | 47.97736 | 11.01216 | 22022 ft | 446 kts | 244° |
| 2026-05-07 15:31 | 47.96728 | 10.96886 | 22017 ft | 437 kts | 258° |
| 2026-05-07 15:31 | 47.96053 | 10.92453 | 22027 ft | 439 kts | 257° |
| 2026-05-07 15:31 | 47.95315 | 10.88019 | 22030 ft | 442 kts | 256° |
| 2026-05-07 15:31 | 47.94537 | 10.83581 | 22025 ft | 444 kts | 256° |
| 2026-05-07 15:32 | 47.93741 | 10.79130 | 22021 ft | 445 kts | 256° |
| 2026-05-07 15:32 | 47.92942 | 10.74675 | 22014 ft | 445 kts | 256° |
| 2026-05-07 15:32 | 47.92135 | 10.70217 | 22014 ft | 445 kts | 256° |
| 2026-05-07 15:32 | 47.91324 | 10.65767 | 22019 ft | 444 kts | 256° |
| 2026-05-07 15:33 | 47.90513 | 10.61337 | 22024 ft | 444 kts | 255° |
| 2026-05-07 15:33 | 47.89700 | 10.56897 | 22019 ft | 443 kts | 255° |
| 2026-05-07 15:33 | 47.88886 | 10.52457 | 22023 ft | 443 kts | 255° |
| 2026-05-07 15:33 | 47.88074 | 10.48035 | 22017 ft | 443 kts | 255° |
| 2026-05-07 15:34 | 47.87262 | 10.43617 | 22019 ft | 443 kts | 255° |
| 2026-05-07 15:34 | 47.86448 | 10.39204 | 22015 ft | 442 kts | 255° |
| 2026-05-07 15:34 | 47.85668 | 10.34764 | 22019 ft | 442 kts | 258° |
| 2026-05-07 15:34 | 47.85143 | 10.30259 | 22023 ft | 442 kts | 264° |
| 2026-05-07 15:35 | 47.84798 | 10.25752 | 22018 ft | 439 kts | 261° |
| 2026-05-07 15:35 | 47.84063 | 10.21339 | 22025 ft | 441 kts | 253° |
| 2026-05-07 15:35 | 47.83121 | 10.16972 | 22027 ft | 443 kts | 252° |
| 2026-05-07 15:35 | 47.82176 | 10.12597 | 22025 ft | 445 kts | 253° |
| 2026-05-07 15:36 | 47.81251 | 10.08205 | 22017 ft | 446 kts | 253° |
| 2026-05-07 15:36 | 47.80345 | 10.03790 | 22031 ft | 446 kts | 253° |
| 2026-05-07 15:36 | 47.79456 | 9.99386 | 22026 ft | 446 kts | 254° |
| 2026-05-07 15:36 | 47.78581 | 9.95026 | 22003 ft | 430 kts | 254° |
| 2026-05-07 15:37 | 47.77746 | 9.90864 | 21995 ft | 409 kts | 254° |
| 2026-05-07 15:37 | 47.76951 | 9.86910 | 21995 ft | 391 kts | 254° |
| 2026-05-07 15:37 | 47.76187 | 9.83121 | 21966 ft | 376 kts | 254° |
| 2026-05-07 15:37 | 47.75438 | 9.79413 | 21548 ft | 373 kts | 254° |
| 2026-05-07 15:38 | 47.74697 | 9.75746 | 21127 ft | 370 kts | 254° |
| 2026-05-07 15:38 | 47.73957 | 9.72097 | 20642 ft | 367 kts | 254° |
| 2026-05-07 15:38 | 47.73221 | 9.68483 | 20179 ft | 365 kts | 253° |
| 2026-05-07 15:38 | 47.72471 | 9.64902 | 19792 ft | 360 kts | 252° |
| 2026-05-07 15:39 | 47.71976 | 9.61320 | 19437 ft | 357 kts | 268° |
| 2026-05-07 15:39 | 47.72053 | 9.57593 | 19126 ft | 365 kts | 274° |
| 2026-05-07 15:39 | 47.72291 | 9.53832 | 18757 ft | 369 kts | 275° |
| 2026-05-07 15:39 | 47.72518 | 9.50101 | 18395 ft | 367 kts | 274° |
| 2026-05-07 15:40 | 47.72696 | 9.46355 | 17990 ft | 365 kts | 273° |
| 2026-05-07 15:40 | 47.72827 | 9.42531 | 17594 ft | 362 kts | 272° |
| 2026-05-07 15:40 | 47.72922 | 9.38808 | 17230 ft | 359 kts | 271° |
| 2026-05-07 15:40 | 47.72997 | 9.35119 | 16867 ft | 356 kts | 271° |
| 2026-05-07 15:41 | 47.73062 | 9.31466 | 16518 ft | 353 kts | 271° |
| 2026-05-07 15:41 | 47.73122 | 9.27879 | 16179 ft | 350 kts | 271° |
| 2026-05-07 15:41 | 47.73179 | 9.24314 | 16086 ft | 341 kts | 270° |
| 2026-05-07 15:41 | 47.73235 | 9.20754 | 16055 ft | 342 kts | 270° |
| 2026-05-07 15:42 | 47.73289 | 9.17201 | 15971 ft | 341 kts | 270° |
| 2026-05-07 15:42 | 47.73343 | 9.13762 | 15375 ft | 333 kts | 270° |
| 2026-05-07 15:42 | 47.73395 | 9.10299 | 14843 ft | 336 kts | 270° |
| 2026-05-07 15:42 | 47.73446 | 9.06828 | 14299 ft | 333 kts | 270° |
| 2026-05-07 15:43 | 47.73511 | 9.03435 | 13480 ft | 326 kts | 271° |
| 2026-05-07 15:43 | 47.73620 | 9.00112 | 13200 ft | 324 kts | 271° |
| 2026-05-07 15:43 | 47.73737 | 8.96728 | 12838 ft | 332 kts | 271° |
| 2026-05-07 15:43 | 47.73856 | 8.93296 | 12492 ft | 333 kts | 271° |
| 2026-05-07 15:44 | 47.73972 | 8.89876 | 12130 ft | 331 kts | 271° |
| 2026-05-07 15:44 | 47.74082 | 8.86489 | 11799 ft | 328 kts | 271° |
| 2026-05-07 15:44 | 47.74190 | 8.83104 | 11467 ft | 326 kts | 271° |
| 2026-05-07 15:44 | 47.74295 | 8.79771 | 11125 ft | 321 kts | 271° |
| 2026-05-07 15:45 | 47.74391 | 8.76703 | 10811 ft | 316 kts | 271° |
| 2026-05-07 15:45 | 47.74491 | 8.73460 | 10499 ft | 312 kts | 271° |
| 2026-05-07 15:45 | 47.74570 | 8.70265 | 10184 ft | 307 kts | 268° |
| 2026-05-07 15:45 | 47.74584 | 8.67193 | 10010 ft | 286 kts | 271° |
| 2026-05-07 15:46 | 47.74801 | 8.61710 | 9583 ft | 249 kts | 271° |
| 2026-05-07 15:46 | 47.74733 | 8.59195 | 9174 ft | 242 kts | 263° |
| 2026-05-07 15:46 | 47.74588 | 8.56810 | 8903 ft | 240 kts | 264° |
| 2026-05-07 15:47 | 47.74436 | 8.54357 | 8630 ft | 237 kts | 263° |
| 2026-05-07 15:47 | 47.74302 | 8.52233 | 8381 ft | 236 kts | 264° |
| 2026-05-07 15:47 | 47.74145 | 8.49799 | 8071 ft | 237 kts | 263° |
| 2026-05-07 15:47 | 47.73953 | 8.47380 | 7732 ft | 233 kts | 256° |
| 2026-05-07 15:48 | 47.73345 | 8.45131 | 7330 ft | 236 kts | 243° |
| 2026-05-07 15:48 | 47.72604 | 8.42954 | 7013 ft | 237 kts | 244° |
| 2026-05-07 15:48 | 47.71788 | 8.40811 | 6537 ft | 239 kts | 231° |
| 2026-05-07 15:48 | 47.70449 | 8.39340 | 6087 ft | 245 kts | 202° |
| 2026-05-07 15:49 | 47.68757 | 8.38884 | 5651 ft | 251 kts | 185° |
| 2026-05-07 15:49 | 47.67079 | 8.38761 | 5246 ft | 255 kts | 184° |
| 2026-05-07 15:49 | 47.65302 | 8.38669 | 4920 ft | 254 kts | 184° |
| 2026-05-07 15:49 | 47.63648 | 8.38608 | 4672 ft | 251 kts | 183° |
| 2026-05-07 15:50 | 47.61915 | 8.38549 | 4390 ft | 247 kts | 184° |
| 2026-05-07 15:50 | 47.60216 | 8.38543 | 4160 ft | 241 kts | 174° |
| 2026-05-07 15:50 | 47.58773 | 8.39374 | 4027 ft | 230 kts | 144° |
| 2026-05-07 15:50 | 47.57559 | 8.40823 | 3953 ft | 220 kts | 140° |
| 2026-05-07 15:51 | 47.56414 | 8.42353 | 3635 ft | 222 kts | 137° |
| 2026-05-07 15:51 | 47.55312 | 8.43875 | 3403 ft | 209 kts | 137° |
| 2026-05-07 15:51 | 47.54282 | 8.45291 | 3090 ft | 195 kts | 137° |
| 2026-05-07 15:51 | 47.53325 | 8.46607 | 2823 ft | 180 kts | 137° |
| 2026-05-07 15:52 | 47.52450 | 8.47804 | 2607 ft | 161 kts | 137° |
| 2026-05-07 15:52 | 47.51678 | 8.48854 | 2349 ft | 142 kts | 137° |
| 2026-05-07 15:52 | 47.50985 | 8.49794 | 2056 ft | 131 kts | 138° |
| 2026-05-07 15:52 | 47.50290 | 8.50706 | 2009 ft | 136 kts | 136° |
| 2026-05-07 15:53 | 47.49584 | 8.51696 | 1847 ft | 143 kts | 134° |
| 2026-05-07 15:53 | 47.48852 | 8.52724 | 1626 ft | 146 kts | 134° |
| 2026-05-07 15:53 | 47.48109 | 8.53733 | 1448 ft | 143 kts | 135° |
| 2026-05-07 15:53 | 47.47436 | 8.54666 | 1410 ft | 118 kts | 135° |
| 2026-05-07 15:54 | 47.46917 | 8.55377 | 1406 ft | 85 kts | 137° |
| 2026-05-07 15:54 | 47.46524 | 8.55915 | 1406 ft | 76 kts | 137° |
| 2026-05-07 15:54 | 47.46222 | 8.56318 | 1411 ft | 36 kts | 148° |
| 2026-05-07 15:54 | 47.46065 | 8.56333 | 1408 ft | 11 kts | 185° |
| 2026-05-07 15:55 | 47.45989 | 8.56323 | 1410 ft | 11 kts | 185° |
| 2026-05-07 15:55 | 47.45915 | 8.56311 | 1411 ft | 3 kts | 187° |
| 2026-05-07 15:56 | 47.45873 | 8.56304 | 1413 ft | 11 kts | 187° |
| 2026-05-07 15:56 | 47.45787 | 8.56289 | 1407 ft | 14 kts | 186° |
| 2026-05-07 15:56 | 47.45681 | 8.56273 | 1405 ft | 17 kts | 185° |
| 2026-05-07 15:56 | 47.45614 | 8.56160 | 1410 ft | 18 kts | 274° |
| 2026-05-07 15:57 | 47.45629 | 8.55993 | 1402 ft | 18 kts | 277° |
| 2026-05-07 15:57 | 47.45642 | 8.55806 | 1407 ft | 19 kts | 276° |
| 2026-05-07 15:57 | 47.45657 | 8.55598 | 1402 ft | 22 kts | 276° |
| 2026-05-07 15:57 | 47.45673 | 8.55375 | 1405 ft | 22 kts | 276° |
| 2026-05-07 15:58 | 47.45649 | 8.55217 | 1408 ft | 13 kts | 196° |
| 2026-05-07 15:58 | 47.45565 | 8.55257 | 1410 ft | 13 kts | 156° |
| 2026-05-07 15:58 | 47.45479 | 8.55316 | 1412 ft | 18 kts | 155° |
| 2026-05-07 15:58 | 47.45342 | 8.55409 | 1411 ft | 25 kts | 155° |
| 2026-05-07 15:59 | 47.45177 | 8.55523 | 1406 ft | 18 kts | 155° |
| 2026-05-07 15:59 | 47.45041 | 8.55616 | 1406 ft | 25 kts | 155° |
| 2026-05-07 15:59 | 47.44955 | 8.55764 | 1410 ft | 20 kts | 100° |
| 2026-05-07 15:59 | 47.44991 | 8.55846 | 1406 ft | 10 kts | 14° |
| 2026-05-07 16:00 | 47.45031 | 8.55855 | 1408 ft | 0 kts | 7° |
| 2026-05-07 16:00 | 47.45033 | 8.55855 | 1408 ft | 0 kts | 7° |